Airfield :
LOGIN :

Register | Disclaimer

   EN    FR    IT 

 










Legend :    VFR   Marginal VFR   IFR   Intensive IFR   Very Intensive IFR
Visi :
Ceiling :
>= 8 km
>= 3000ft
5 to 8 km
1000 to 3000 ft
1500m to 5 km
500 to 1000 ft
800 to 1500m
200 to 500 ft
< 800m
< 200 ft
Symbols :   Thunderstorms  Fog  Heavy snow  Heavy precipitations  Wind > 20 kt
SIGMETs :     Misc.  Thunderstorms  Icing  Turbulence  Mountain Waves  Volcanic Ashes






- Airport Elevation : 84 ft


LFBC - Cazaux

CURRENT METAR :
  • 221130Z AUTO 27011KT 230V310 9999 BKN025/// BKN032/// ///TCU 21/15 Q1014 TEMPO VRB15G25KT 3000 TSRA BKN015CB

EXPIRED METARs :
  • 221100Z AUTO 26010KT 220V300 9999 BKN023 BKN029 BKN037 20/15 Q1014 TEMPO VRB15G25KT 3000 TSRA BKN015CB
  • 221030Z AUTO 25009KT 210V280 9999 BKN021/// BKN028/// BKN043/// ///CB 20/16 Q1014 TEMPO VRB15G25KT 3000 TSRA
  • 221000Z AUTO 26009KT 210V290 9999 FEW019 SCT026 BKN049 19/16 Q1014 TEMPO 4000 SHRA BKN015TCU
  • 220930Z AUTO 25009KT 220V280 9999 BKN020/// BKN026/// BKN033/// ///TCU 20/15 Q1013 TEMPO 4000 SHRA
  • 220900Z AUTO 25010KT 200V290 9999 BKN019/// BKN026/// BKN035/// ///CB 20/16 Q1013 TEMPO 4000 SHRA

TAF TAF LFBC
Valid from the 22 at 09:00 until the 23 at 09:00 UTC


220800Z 2209/2309 26005KT 9999 SCT020TCU BKN050
TEMPO 2209/2301 4000 SHRA BKN015TCU
PROB40
TEMPO 2212/2222 VRB15G25KT 3000 TSRA BKN015CB



MET'MAP, your aeronautical weather chart ! - Copyright ORBIFLY December 2007 - Disclaimer

ORBIFLY MET'MAP TEAM :

Programming & Development : Alexandra Zaïnal
Concept & original design : Baudouin d'Aumeries
Assistance for programming : Marc-Olivier Méhu
Technical & hardware support : Manuel Goepfert

Contact : metmap@orbifly.com




SOURCES & CREDITS :

   NOAA